• Join FlightAware (Why Join?)
  • Login
  • US Flag 
05:12AM EDT


 

Airport Tracker/Info


-or-


 

Live Flight TrackerFlight Track Log ✈ UAL395 ✈ 07-May-2013 ✈ KIAH - KLAS

Flight Track Log - Related Links

Times and Time Zones

All times are in EDT time to prevent confusion due to time zone crossing. See the UAL395 flight status page for this flight to view local times or setup timezone preferences in your user account.

Time Position Orientation Groundspeed Altitude Reporting Facility
EDT Latitude Longitude Course Direction KTS MPH feet Rate Location/Type
08:26AM 29.9617 -95.3436 291° West 149 171 700  Level Houston Center
08:27AM 29.9436 -95.3989 249° West 223 257 2,600 2,220 Climbing Houston Center
08:28AM 29.9575 -95.4814 281° West 278 320 5,500 3,420 Climbing Houston Center
08:29AM 30.0342 -95.8101 276° West  Level FlightAware Approximate
08:29AM 29.9772 -95.5764 283° West 266 306 10,100  Level Houston Center
08:30AM 30.0442 -95.9302 276° West  Level FlightAware Approximate
08:30AM 29.9956 -95.6667 283° West 283 326 11,500  Level Houston Center
08:31AM 30.0657 -96.0471 291° West  Level FlightAware Approximate
08:31AM 30.0167 -95.7747 283° West 338 389 14,200  Level Houston Center
08:32AM 30.0364 -95.8844 282° West 348 400 16,900 2,400 Climbing Houston Center
08:33AM 30.0581 -95.9961 283° West 356 410 19,200 1,920 Climbing Houston Center
08:34AM 30.0783 -96.1061 282° West 365 420 20,900 1,800 Climbing Houston Center
08:35AM 30.1000 -96.2503 280° West 380 437 23,000 1,740 Climbing Houston Center
08:36AM 30.1200 -96.3739 281° West 391 450 24,500 1,500 Climbing Houston Center
08:37AM 30.1492 -96.4922 286° West 398 458 26,100 1,440 Climbing Houston Center
08:38AM 30.1778 -96.6228 284° West 409 471 27,500 1,260 Climbing Houston Center
08:39AM 30.2081 -96.7519 285° West 412 474 28,700 1,080 Climbing Houston Center
08:40AM 30.2372 -96.8869 284° West 424 488 29,800 1,260 Climbing Houston Center
08:41AM 30.2664 -97.0219 284° West 427 491 31,400 1,560 Climbing Houston Center
08:42AM 30.3006 -97.1736 285° West 414 476 33,100 1,800 Climbing Houston Center
08:43AM 30.3281 -97.3028 284° West 408 470 35,100 1,380 Climbing Houston Center
08:44AM 30.3556 -97.4242 285° West 388 447 36,000 420 Climbing Houston Center
08:45AM 30.3819 -97.5500 284° West 395 455 36,000 480 Level Houston Center
08:46AM 30.4103 -97.6756 285° West 396 456 37,100 900 Climbing Houston Center
08:47AM 30.4372 -97.7992 284° West 392 451 37,900 420 Climbing Houston Center
08:48AM 30.4619 -97.9214 283° West 387 445 38,000  Climbing Houston Center
08:49AM 30.4881 -98.0447 284° West 389 448 38,000  Level Houston Center
08:50AM 30.5150 -98.1675 284° West 389 448 38,000  Level Houston Center
08:51AM 30.5408 -98.2933 283° West 394 453 38,000  Level Houston Center
08:52AM 30.5669 -98.4172 284° West 392 451 38,000  Level Houston Center
08:53AM 30.5939 -98.5431 284° West 396 456 38,000  Level Houston Center
08:54AM 30.6203 -98.6681 284° West 396 456 38,000  Level Houston Center
08:56AM 30.6506 -98.8150 284° West 396 456 38,000  Level Houston Center
08:57AM 30.6769 -98.9408 284° West 396 456 38,000  Level Houston Center
08:58AM 30.7019 -99.0669 283° West 396 456 38,000 -60 Level Houston Center
08:59AM 30.7253 -99.1831 283° West 396 456 37,900 -60 Descending Houston Center
09:00AM 30.7519 -99.3072 284° West 397 457 37,900  Level Houston Center
09:01AM 30.7761 -99.4314 283° West 397 457 37,900  Level Houston Center
09:02AM 30.8056 -99.5794 283° West 395 455 37,900  Level Houston Center
09:03AM 30.8314 -99.7047 284° West 401 461 37,900  Level Houston Center
09:04AM 30.8553 -99.8292 283° West 397 457 37,900  Level Houston Center
09:05AM 30.8800 -99.9522 283° West 394 453 37,900  Level Houston Center
09:06AM 30.9039 -100.0769 283° West 396 456 37,900  Level Houston Center
09:07AM 30.9283 -100.2011 283° West 396 456 37,900  Level Houston Center
09:08AM 30.9569 -100.3503 283° West 396 456 37,900  Level Houston Center
09:09AM 30.9817 -100.4750 283° West 396 456 37,900  Level Houston Center
09:10AM 31.0053 -100.5994 283° West 398 458 37,900  Level Houston Center
09:11AM 31.0300 -100.7219 283° West 393 452 37,900  Level Houston Center
09:12AM 31.0511 -100.8511 281° West 408 470 37,900  Level Houston Center
09:13AM 31.0744 -100.9742 283° West 400 460 37,900  Level Houston Center
09:14AM 31.1022 -101.1242 282° West 406 467 37,900  Level Houston Center
09:15AM 31.1278 -101.2419 284° West 388 447 37,900  Level Houston Center
09:16AM 31.1522 -101.3708 283° West 395 455 37,900  Level Houston Center
09:17AM 31.1739 -101.4961 281° West 396 456 37,900  Level Houston Center
09:18AM 31.1969 -101.6200 282° West 393 452 37,900  Level Houston Center
09:19AM 31.2133 -101.7189 281° West 392 451 37,900  Level Albuquerque Center
09:20AM 31.2358 -101.8439 282° West 394 453 37,900  Level Albuquerque Center
09:21AM 31.2558 -101.9592 282° West 405 466 38,000  Climbing Albuquerque Center
09:22AM 31.2783 -102.0847 282° West 401 461 38,000  Level Albuquerque Center
09:23AM 31.3006 -102.2108 282° West 396 456 38,000  Level Albuquerque Center
09:24AM 31.3231 -102.3378 282° West 398 458 38,000  Level Albuquerque Center
09:25AM 31.3444 -102.4633 281° West 395 455 38,000 -60 Level Albuquerque Center
09:26AM 31.3714 -102.6158 282° West 396 456 37,900 -60 Descending Albuquerque Center
09:27AM 31.3931 -102.7422 281° West 397 457 37,900  Level Albuquerque Center
09:28AM 31.4153 -102.8683 282° West 396 456 37,900  Level Albuquerque Center
09:29AM 31.4361 -102.9939 281° West 395 455 37,900  Level Albuquerque Center
09:30AM 31.4583 -103.1200 282° West 396 456 37,900  Level Albuquerque Center
09:31AM 31.4786 -103.2472 281° West 397 457 37,900  Level Albuquerque Center
09:32AM 31.4997 -103.3722 281° West 394 453 37,900  Level Albuquerque Center
09:33AM 31.5206 -103.4994 281° West 397 457 37,900  Level Albuquerque Center
09:34AM 31.5417 -103.6278 281° West 401 461 37,900  Level Albuquerque Center
09:35AM 31.5653 -103.7631 282° West 405 466 38,000  Climbing Albuquerque Center
09:36AM 31.5844 -103.8922 280° West 404 465 38,000 -60 Level Albuquerque Center
09:37AM 31.6072 -104.0208 282° West 403 464 37,900 -60 Descending Albuquerque Center
09:38AM 31.6275 -104.1489 281° West 402 463 37,900  Level Albuquerque Center
09:39AM 31.6489 -104.2778 281° West 404 465 37,900  Level Albuquerque Center
09:40AM 31.6736 -104.4331 281° West 405 466 37,900  Level Albuquerque Center
09:41AM 31.6944 -104.5619 281° West 405 466 37,900  Level Albuquerque Center
09:42AM 31.7147 -104.6908 281° West 403 464 37,900  Level Albuquerque Center
09:43AM 31.7353 -104.8197 281° West 404 465 37,900  Level Albuquerque Center
09:44AM 31.7547 -104.9481 280° West 403 464 37,900  Level Albuquerque Center
09:45AM 31.7753 -105.0783 281° West 406 467 37,900  Level Albuquerque Center
09:46AM 31.7942 -105.2083 280° West 406 467 38,000  Climbing Albuquerque Center
09:47AM 31.8142 -105.3403 280° West 410 472 38,000 -60 Level Albuquerque Center
09:48AM 31.8333 -105.4678 280° West 400 460 37,900 -60 Descending Albuquerque Center
09:49AM 31.8564 -105.6200 280° West 394 453 37,900  Level Albuquerque Center
09:50AM 31.8747 -105.7464 280° West 394 453 37,900  Level Albuquerque Center
09:51AM 31.8939 -105.8736 280° West 395 455 37,900  Level Albuquerque Center
09:52AM 31.9117 -105.9886 280° West 394 453 37,900  Level Albuquerque Center
09:53AM 31.9292 -106.1167 279° West 397 457 37,900  Level Albuquerque Center
09:54AM 31.9533 -106.2683 281° West 395 455 37,900  Level Albuquerque Center
09:55AM 31.9836 -106.3958 286° West 403 464 37,900  Level Albuquerque Center
09:57AM 32.0142 -106.5217 286° West 400 460 37,900  Level Albuquerque Center
09:58AM 32.0453 -106.6467 286° West 399 459 38,000  Climbing Albuquerque Center
09:59AM 32.0764 -106.7714 286° West 395 455 37,900 -60 Descending Albuquerque Center
10:00AM 32.1072 -106.8958 286° West 395 455 37,900  Level Albuquerque Center
10:01AM 32.1369 -107.0217 286° West 396 456 37,900  Level Albuquerque Center
10:02AM 32.1911 -107.1536 296° West 393 452 38,000  Climbing Albuquerque Center
10:03AM 32.2458 -107.2717 299° West 400 460 38,000  Level Albuquerque Center
10:04AM 32.3022 -107.3828 301° West 398 458 38,000  Level Albuquerque Center
10:05AM 32.3583 -107.4933 301° West 397 457 38,000 -60 Level Albuquerque Center
10:06AM 32.4192 -107.6161 300° West 394 453 37,900 -60 Descending Albuquerque Center
10:07AM 32.4758 -107.7306 300° West 399 459 37,900  Level Albuquerque Center
10:08AM 32.5253 -107.8286 301° West 399 459 38,000  Climbing Albuquerque Center
10:09AM 32.5919 -107.9636 300° West 399 459 38,000  Level Albuquerque Center
10:11AM 32.7022 -108.1861 301° West 395 455 38,000  Level Albuquerque Center
10:12AM 32.7583 -108.2978 301° West 396 456 38,000  Level Albuquerque Center
10:13AM 32.8136 -108.4094 301° West 397 457 38,000  Level Albuquerque Center
10:14AM 32.8694 -108.5214 301° West 397 457 38,000  Level Albuquerque Center
10:15AM 32.9358 -108.6564 300° West 398 458 38,000 -60 Level Albuquerque Center
10:16AM 32.9919 -108.7719 300° West 401 461 37,900 -60 Descending Albuquerque Center
10:17AM 33.0472 -108.8889 299° West 404 465 37,900  Level Albuquerque Center
10:18AM 33.1039 -109.0061 300° West 407 468 37,900  Level Albuquerque Center
10:19AM 33.1672 -109.1347 300° West 412 474 38,000  Climbing Albuquerque Center
10:20AM 33.2225 -109.2508 300° West 410 472 38,000  Level Albuquerque Center
10:21AM 33.2792 -109.3683 300° West 410 472 38,000  Level Albuquerque Center
10:22AM 33.3356 -109.4867 300° West 413 475 38,000  Level Albuquerque Center
10:23AM 33.3914 -109.6033 300° West 409 471 38,000  Level Albuquerque Center
10:24AM 33.4586 -109.7458 300° West 411 473 38,000  Level Albuquerque Center
10:25AM 33.5147 -109.8647 300° West 413 475 38,000  Level Albuquerque Center
10:26AM 33.5706 -109.9822 300° West 409 471 38,000  Level Albuquerque Center
10:27AM 33.6250 -110.1028 298° West 414 476 38,000  Level Albuquerque Center
10:28AM 33.6803 -110.2203 300° West 410 472 38,000  Level Albuquerque Center
10:29AM 33.7367 -110.3400 300° West 412 474 38,000  Level Albuquerque Center
10:30AM 33.7958 -110.4681 299° West 411 473 38,000  Level Albuquerque Center
10:31AM 33.8503 -110.5869 299° West 409 471 38,000 -60 Level Albuquerque Center
10:32AM 33.9158 -110.7297 299° West 408 470 37,900  Descending Albuquerque Center
10:33AM 33.9711 -110.8497 299° West 410 472 38,000  Climbing Albuquerque Center
10:34AM 34.0261 -110.9694 299° West 410 472 38,000  Level Albuquerque Center
10:36AM 34.0819 -111.0908 299° West 415 478 38,000  Level Albuquerque Center
10:37AM 34.1358 -111.2103 299° West 411 473 38,000  Level Albuquerque Center
10:38AM 34.1900 -111.3303 299° West 409 471 38,000  Level Albuquerque Center
10:39AM 34.2550 -111.4736 299° West 408 470 38,000  Level Albuquerque Center
10:40AM 34.3078 -111.5925 298° West 408 470 38,000  Level Albuquerque Center
10:41AM 34.3611 -111.7108 299° West 407 468 38,000  Level Albuquerque Center
10:42AM 34.4139 -111.8281 299° West 403 464 38,000  Level Albuquerque Center
10:43AM 34.4667 -111.9461 298° West 402 463 38,000  Level Albuquerque Center
10:44AM 34.5289 -112.0878 298° West 400 460 38,000 -60 Level Albuquerque Center
10:45AM 34.5808 -112.2058 298° West 399 459 37,900 -540 Descending Albuquerque Center
10:46AM 34.6328 -112.3231 298° West 396 456 36,900 -1,020 Descending Albuquerque Center
10:47AM 34.6867 -112.4447 298° West 398 458 35,900 -1,260 Descending Albuquerque Center
10:48AM 34.7356 -112.5639 297° West 395 455 34,400 -1,560 Descending Albuquerque Center
10:49AM 34.7825 -112.6839 295° West 393 452 32,700 -1,560 Descending Albuquerque Center
10:50AM 34.8294 -112.8050 295° West 395 455 31,200 -1,320 Descending Albuquerque Center
10:51AM 34.8875 -112.9542 295° West 403 464 30,000 -600 Descending Albuquerque Center
10:52AM 34.9367 -113.0806 295° West 409 471 30,000  Level Albuquerque Center
10:53AM 34.9858 -113.2094 295° West 414 476 30,000  Level Albuquerque Center
10:54AM 35.0350 -113.3367 295° West 414 476 30,000  Level Albuquerque Center
10:55AM 35.0725 -113.4361 295° West 408 470 30,000 -1,620 Level Los Angeles Center
10:56AM 35.1197 -113.5639 294° West 409 471 27,100 -2,940 Descending Los Angeles Center
10:57AM 35.1708 -113.6947 296° West 422 486 24,000 -1,620 Descending Los Angeles Center
10:58AM 35.2153 -113.8167 294° West 398 458 23,800 -1,020 Descending Los Angeles Center
10:59AM 35.2819 -113.9519 301° West 397 457 22,000 -900 Descending Los Angeles Center
11:00AM 35.3753 -114.0414 322° Northwest 424 488 22,000 -1,860 Level Los Angeles Center
11:01AM 35.4669 -114.1253 323° Northwest 412 474 18,300 -3,360 Descending Los Angeles Center
11:02AM 35.5578 -114.2117 322° Northwest 410 472 15,200 -2,820 Descending Los Angeles Center
11:02AM 35.5883 -114.2375 325° Northwest 399 459 14,600 -1,380 Descending Los Angeles Center
11:03AM 35.6364 -114.2825 323° Northwest 359 413 13,800 -1,200 Descending Los Angeles Center
11:04AM 35.7039 -114.3467 322° Northwest 318 366 12,700 -1,320 Descending Los Angeles Center
11:05AM 35.7756 -114.4153 322° Northwest 306 352 11,400 -1,440 Descending Los Angeles Center
11:06AM 35.8383 -114.4819 319° Northwest 298 343 9,800 -1,440 Descending Los Angeles Center
11:07AM 35.9003 -114.5458 320° Northwest 293 337 8,500 -840 Descending Los Angeles Center
11:08AM 35.9647 -114.6119 320° Northwest 286 329 8,100 -300 Descending Los Angeles Center
11:09AM 36.0131 -114.6650 318° Northwest 279 321 8,000 -120 Descending Los Angeles Center
11:09AM 36.0289 -114.6775 327° Northwest 283 326 8,000  Level Los Angeles Center
11:10AM 36.0606 -114.7128 318° Northwest 235 270 8,000  Level Los Angeles Center
11:10AM 36.0761 -114.7317 316° Northwest 259 298 8,000 -480 Level Los Angeles Center
11:11AM 36.0747 -114.7961 268° West 239 275 7,500 -840 Descending Los Angeles Center
11:11AM 36.0733 -114.8128 264° West 244 281 7,200 -1,440 Descending Los Angeles Center
11:12AM 36.0731 -114.8872 270° West 236 272 5,900 -1,800 Descending Los Angeles Center